UDYZ/EVN METAR and TAF weather

Enter ICAO airport designator
Station Type Date Time Source
UDYZ METAR 2021/04/13 07:30 UTC NOAA

UDYZ 130730Z 21004KT 9999 FEW046 14/06 Q1015 R09/010070 NOSIG


Station Type Date Time Source
UDYZ Decoded METAR 2021/04/13 07:30 UTC NOAA

Station name not available
Apr 13, 2021 - 03:30 AM EDT / 2021.04.13 0730 UTC
Wind: from the SSW (210 degrees) at 5 MPH (4 KT):0
Visibility: greater than 7 mile(s):0
Sky conditions: mostly clear
Temperature: 57 F (14 C)
Dew Point: 42 F (6 C)
Relative Humidity: 58%
Pressure (altimeter): 29.97 in. Hg (1015 hPa)
ob: UDYZ 130730Z 21004KT 9999 FEW046 14/06 Q1015 R09/010070 NOSIG
cycle: 7

Station Type Date Time Source
UDYZ TAF 2021/04/13 06:00 UTC NOAA

TAF UDYZ 130502Z 1306/1406 19006KT 9999 FEW040
TEMPO 1306/1309 SCT040CB
TEMPO 1309/1321 VRB16G26KT -TSRA BKN030CB

Example: see airport list